Assateague Island Natl Seashore, Maryland
Current Conditions -  °F | °C
As of 7:53 PM on Saturday 25 Oct 2014 (Local Time) from KOXB Reporting Station
Clear Clear  
Wind Chill: 59°   Ceiling: Unl
Heat Index: 59°   Visibility: 10mi
Dew Point: 45°   Wind: 10mph
Humidity: 60%   Direction: 230°SW
Pressure: 29.76"   Gusts: NA
Location:  38.12°N, 75.19°W
Report Text: KOXB 252353Z AUTO 23009KT 10SM CLR 15/07 A2976 RMK AO2 SLP077 T01500072 10206 20150 58012 TSNO
Loading
Personal Weather Stations






























Interactive Weather Map
Tropical Storm Tracking
New forecast layout! Learn more

10-Day Weather Forecast

Advertisements
Track Severe Weather on mobile